createdAt,value
2019-02-07T00:00:37.440Z,75.88
2019-02-07T00:01:37.416Z,76.47
2019-02-07T00:03:07.899Z,75.78
2019-02-07T00:04:07.875Z,75.43
2019-02-07T00:05:38.339Z,75.98
2019-02-07T00:06:38.331Z,75.46
2019-02-07T00:08:08.825Z,75.88
2019-02-07T00:09:08.784Z,76.09
2019-02-07T00:10:39.261Z,75.88
2019-02-07T00:11:39.259Z,75.98
2019-02-07T00:13:09.732Z,75.88
2019-02-07T00:14:09.694Z,75.98
2019-02-07T00:15:40.156Z,75.98
2019-02-07T00:16:40.157Z,75.98
2019-02-07T00:18:10.627Z,75.67
2019-02-07T00:19:10.599Z,75.78
2019-02-07T00:20:41.065Z,75.78
2019-02-07T00:21:41.049Z,75.98
2019-02-07T00:23:11.522Z,76.30
2019-02-07T00:24:11.508Z,76.09
2019-02-07T00:25:41.962Z,75.88
2019-02-07T00:26:41.966Z,75.57
2019-02-07T00:27:41.944Z,75.88
2019-02-07T00:28:41.941Z,75.67
2019-02-07T00:29:41.936Z,75.46
2019-02-07T00:30:41.909Z,75.36
2019-02-07T00:31:41.897Z,75.46
2019-02-07T00:32:41.891Z,75.92
2019-02-07T00:33:41.882Z,75.81
2019-02-07T00:34:41.873Z,75.60
2019-02-07T00:35:41.852Z,75.71
2019-02-07T00:36:41.843Z,76.12
2019-02-07T00:37:41.834Z,76.02
2019-02-07T00:38:41.821Z,75.60
2019-02-07T00:41:59.469Z,75.81
2019-02-07T00:42:59.457Z,75.29
2019-02-07T00:44:33.040Z,75.26
2019-02-07T00:45:29.890Z,74.87
2019-02-07T00:46:30.510Z,75.26
2019-02-07T00:47:29.868Z,74.87
2019-02-07T00:48:29.852Z,75.29
2019-02-07T00:49:29.843Z,75.29
2019-02-07T00:50:31.156Z,75.05
2019-02-07T00:51:29.826Z,74.66
2019-02-07T00:52:29.904Z,74.46
2019-02-07T00:53:29.807Z,74.56
2019-02-07T00:54:29.853Z,74.35
2019-02-07T00:55:30.208Z,75.40
2019-02-07T00:56:29.773Z,75.29
2019-02-07T00:57:29.762Z,74.66
2019-02-07T00:58:29.824Z,75.40
2019-02-07T00:59:29.742Z,75.29
2019-02-07T01:00:29.724Z,75.81
2019-02-07T01:01:29.713Z,75.71
2019-02-07T01:02:29.705Z,75.81
2019-02-07T01:03:29.699Z,75.40
2019-02-07T01:04:29.682Z,75.53
2019-02-07T01:05:29.671Z,75.60
2019-02-07T01:06:29.659Z,75.60
2019-02-07T01:07:29.649Z,74.98
2019-02-07T01:08:29.639Z,74.56
2019-02-07T01:09:29.632Z,75.40
2019-02-07T01:10:29.616Z,75.12
2019-02-07T01:11:29.606Z,74.46
2019-02-07T01:12:29.595Z,74.91
2019-02-07T01:13:29.590Z,74.87
2019-02-07T01:14:29.576Z,74.87
2019-02-07T01:15:29.577Z,74.56
2019-02-07T01:16:29.553Z,74.35
2019-02-07T01:17:29.541Z,74.66
2019-02-07T01:18:29.530Z,74.77
2019-02-07T01:19:29.520Z,74.15
2019-02-07T01:20:29.516Z,74.80
2019-02-07T01:21:29.498Z,74.04
2019-02-07T01:22:29.488Z,74.18
2019-02-07T01:23:29.477Z,74.18
2019-02-07T01:24:29.470Z,74.25
2019-02-07T01:25:29.457Z,73.72
2019-02-07T01:26:29.452Z,74.15
2019-02-07T01:27:29.434Z,73.72
2019-02-07T01:28:29.428Z,74.07
2019-02-07T01:29:29.413Z,73.76
2019-02-07T01:30:29.403Z,73.10
2019-02-07T01:31:29.390Z,74.18
2019-02-07T01:32:29.386Z,73.41
2019-02-07T01:33:29.371Z,73.55
2019-02-07T01:34:29.362Z,73.21
2019-02-07T01:35:29.348Z,73.13
2019-02-07T01:36:29.348Z,73.13
2019-02-07T01:37:29.336Z,73.66
2019-02-07T01:38:29.315Z,73.76
2019-02-07T01:39:29.307Z,74.49
2019-02-07T01:40:29.297Z,74.38
2019-02-07T01:41:29.284Z,73.76
2019-02-07T01:42:29.287Z,73.97
2019-02-07T01:43:29.264Z,73.97
2019-02-07T01:44:29.250Z,73.55
2019-02-07T01:45:29.242Z,74.28
2019-02-07T01:46:29.231Z,73.66
2019-02-07T01:47:29.219Z,73.69
2019-02-07T01:48:29.207Z,74.42
2019-02-07T01:49:29.201Z,75.05
2019-02-07T01:50:29.186Z,74.32
2019-02-07T01:51:29.184Z,75.15
2019-02-07T01:52:29.165Z,74.42
2019-02-07T01:53:29.161Z,74.94
2019-02-07T01:54:29.146Z,74.94
2019-02-07T01:55:29.141Z,74.73
2019-02-07T01:56:29.122Z,74.52
2019-02-07T01:57:29.117Z,75.05
2019-02-07T01:58:29.101Z,75.05
2019-02-07T01:59:29.090Z,74.63
2019-02-07T02:00:29.082Z,74.52
2019-02-07T02:01:29.069Z,74.84
2019-02-07T02:02:29.059Z,74.42
2019-02-07T02:03:29.054Z,74.11
2019-02-07T02:04:29.038Z,74.42
2019-02-07T02:05:29.029Z,74.21
2019-02-07T02:06:29.022Z,74.11
2019-02-07T02:07:29.007Z,73.69
2019-02-07T02:08:28.993Z,73.48
2019-02-07T02:09:28.987Z,74.24
2019-02-07T02:10:28.975Z,74.52
2019-02-07T02:11:28.966Z,74.11
2019-02-07T02:12:28.957Z,74.32
2019-02-07T02:13:28.949Z,74.32
2019-02-07T02:14:28.930Z,74.21
2019-02-07T02:15:28.930Z,74.32
2019-02-07T02:16:28.916Z,75.05
2019-02-07T02:17:28.906Z,74.94
2019-02-07T02:18:28.898Z,75.15
2019-02-07T02:19:28.881Z,74.21
2019-02-07T02:20:28.867Z,75.15
2019-02-07T02:21:28.859Z,74.63
2019-02-07T02:22:28.844Z,75.36
2019-02-07T02:23:28.834Z,74.73
2019-02-07T02:24:28.823Z,74.63
2019-02-07T02:25:28.814Z,74.07
2019-02-07T02:26:28.804Z,74.42
2019-02-07T02:27:28.803Z,74.38
2019-02-07T02:28:28.779Z,75.12
2019-02-07T02:29:28.774Z,74.60
2019-02-07T02:30:28.762Z,74.70
2019-02-07T02:31:28.758Z,74.60
2019-02-07T02:32:28.740Z,74.52
2019-02-07T02:33:28.744Z,73.97
2019-02-07T02:34:28.717Z,74.07
2019-02-07T02:35:28.717Z,73.38
2019-02-07T02:36:28.694Z,74.11
2019-02-07T02:37:28.684Z,73.90
2019-02-07T02:38:28.672Z,72.96
2019-02-07T02:39:28.663Z,73.79
2019-02-07T02:40:28.669Z,74.11
2019-02-07T02:41:28.638Z,74.21
2019-02-07T02:42:28.629Z,74.32
2019-02-07T02:43:28.632Z,74.14
2019-02-07T02:44:28.610Z,73.58
2019-02-07T02:45:37.050Z,74.01
2019-02-07T02:46:29.586Z,74.21
2019-02-07T02:47:28.576Z,74.11
2019-02-07T02:48:28.565Z,74.14
2019-02-07T02:49:28.554Z,73.93
2019-02-07T02:50:28.550Z,73.41
2019-02-07T02:51:28.536Z,74.14
2019-02-07T02:52:28.530Z,73.83
2019-02-07T02:53:28.511Z,73.93
2019-02-07T02:54:28.501Z,74.56
2019-02-07T02:55:28.489Z,74.04
2019-02-07T02:56:28.597Z,73.83
2019-02-07T02:57:28.477Z,73.52
2019-02-07T02:58:28.459Z,74.24
2019-02-07T02:59:28.451Z,74.04
2019-02-07T03:00:28.439Z,74.04
2019-02-07T03:01:28.426Z,73.93
2019-02-07T03:02:28.433Z,73.62
2019-02-07T03:03:28.418Z,73.83
2019-02-07T03:04:28.394Z,74.14
2019-02-07T03:05:28.389Z,74.35
2019-02-07T03:06:28.388Z,74.14
2019-02-07T03:07:28.364Z,74.14
2019-02-07T03:08:28.360Z,73.93
2019-02-07T03:09:28.349Z,74.35
2019-02-07T03:10:28.329Z,73.52
2019-02-07T03:11:28.321Z,74.35
2019-02-07T03:12:28.308Z,74.38
2019-02-07T03:13:28.305Z,73.86
2019-02-07T03:14:28.294Z,74.07
2019-02-07T03:15:28.291Z,73.96
2019-02-07T03:16:28.268Z,74.18
2019-02-07T03:17:28.258Z,74.28
2019-02-07T03:18:28.245Z,73.86
2019-02-07T03:19:28.236Z,73.86
2019-02-07T03:20:28.222Z,74.49
2019-02-07T03:21:28.213Z,73.86
2019-02-07T03:22:28.202Z,73.65
2019-02-07T03:23:28.195Z,73.86
2019-02-07T03:24:28.254Z,74.07
2019-02-07T03:25:28.169Z,74.38
2019-02-07T03:26:28.163Z,74.38
2019-02-07T03:27:28.148Z,74.18
2019-02-07T03:28:28.141Z,73.86
2019-02-07T03:29:28.126Z,74.28
2019-02-07T03:30:28.117Z,74.73
2019-02-07T03:31:28.108Z,74.38
2019-02-07T03:32:28.124Z,74.18
2019-02-07T03:33:28.084Z,73.65
2019-02-07T03:34:28.071Z,74.18
2019-02-07T03:35:28.062Z,74.21
2019-02-07T03:36:28.057Z,73.96
2019-02-07T03:37:28.044Z,74.42
2019-02-07T03:38:28.029Z,74.21
2019-02-07T03:39:28.018Z,73.44
2019-02-07T03:40:28.011Z,73.65
2019-02-07T03:41:27.997Z,74.18
2019-02-07T03:42:27.988Z,74.07
2019-02-07T03:43:27.980Z,74.18
2019-02-07T03:44:27.989Z,73.69
2019-02-07T03:45:27.968Z,74.00
2019-02-07T03:46:27.943Z,74.00
2019-02-07T03:47:27.934Z,74.31
2019-02-07T03:48:27.921Z,73.96
2019-02-07T03:49:27.925Z,74.28
2019-02-07T03:50:27.900Z,74.28
2019-02-07T03:51:27.907Z,74.18
2019-02-07T03:52:27.879Z,74.21
2019-02-07T03:53:27.874Z,74.73
2019-02-07T03:54:27.862Z,74.18
2019-02-07T03:55:27.850Z,74.28
2019-02-07T03:56:27.835Z,74.07
2019-02-07T03:57:27.826Z,73.86
2019-02-07T03:58:27.815Z,74.38
2019-02-07T03:59:27.807Z,73.34
2019-02-07T04:00:27.806Z,73.24
2019-02-07T04:01:27.782Z,74.18
2019-02-07T04:02:27.770Z,73.02
2019-02-07T04:03:27.761Z,73.34
2019-02-07T04:04:27.750Z,73.75
2019-02-07T04:05:27.739Z,73.65
2019-02-07T04:06:27.745Z,73.55
2019-02-07T04:07:27.717Z,74.07
2019-02-07T04:08:27.706Z,74.31
2019-02-07T04:09:27.698Z,73.86
2019-02-07T04:10:27.686Z,74.10
2019-02-07T04:11:27.674Z,74.52
2019-02-07T04:12:27.669Z,74.21
2019-02-07T04:13:27.653Z,74.31
2019-02-07T04:14:27.645Z,74.10
2019-02-07T04:15:27.631Z,74.31
2019-02-07T04:16:27.628Z,73.69
2019-02-07T04:17:27.616Z,74.21
2019-02-07T04:18:27.609Z,73.58
2019-02-07T04:19:27.597Z,74.21
2019-02-07T04:20:27.581Z,74.21
2019-02-07T04:21:27.577Z,74.31
2019-02-07T04:22:27.556Z,74.31
2019-02-07T04:23:27.545Z,74.84
2019-02-07T04:24:27.541Z,74.31
2019-02-07T04:25:27.527Z,74.10
2019-02-07T04:26:27.515Z,74.42
2019-02-07T04:27:27.503Z,73.86
2019-02-07T04:28:27.495Z,73.79
2019-02-07T04:29:27.495Z,74.31
2019-02-07T04:30:27.474Z,74.69
2019-02-07T04:31:27.459Z,73.96
2019-02-07T04:32:27.453Z,74.42
2019-02-07T04:33:27.445Z,74.59
2019-02-07T04:34:27.433Z,73.96
2019-02-07T04:35:27.425Z,74.18
2019-02-07T04:36:27.413Z,74.18
2019-02-07T04:37:27.397Z,74.18
2019-02-07T04:38:27.386Z,73.75
2019-02-07T04:39:27.376Z,74.07
2019-02-07T04:40:27.365Z,74.18
2019-02-07T04:41:27.355Z,73.90
2019-02-07T04:42:27.342Z,74.21
2019-02-07T04:43:27.332Z,74.52
2019-02-07T04:44:27.320Z,73.24
2019-02-07T04:45:27.318Z,72.85
2019-02-07T04:46:27.495Z,72.92
2019-02-07T04:47:27.303Z,73.16
2019-02-07T04:48:27.283Z,73.24
2019-02-07T04:49:27.272Z,72.64
2019-02-07T04:50:27.259Z,72.75
2019-02-07T04:51:27.247Z,72.53
2019-02-07T04:52:27.240Z,73.27
2019-02-07T04:53:27.226Z,73.16
2019-02-07T04:54:27.215Z,72.85
2019-02-07T04:55:27.201Z,73.47
2019-02-07T04:56:27.282Z,74.42
2019-02-07T04:57:27.187Z,73.90
2019-02-07T04:58:27.170Z,74.10
2019-02-07T04:59:27.174Z,74.31
2019-02-07T05:00:27.165Z,73.90
2019-02-07T05:01:27.138Z,73.90
2019-02-07T05:02:27.164Z,73.47
2019-02-07T05:03:27.125Z,72.96
2019-02-07T05:04:27.105Z,72.75
2019-02-07T05:05:27.099Z,72.53
2019-02-07T05:06:27.083Z,73.06
2019-02-07T05:07:27.075Z,72.88
2019-02-07T05:08:27.078Z,73.61
2019-02-07T05:09:27.056Z,73.61
2019-02-07T05:10:27.044Z,73.93
2019-02-07T05:11:27.036Z,73.61
2019-02-07T05:12:27.018Z,74.14
2019-02-07T05:13:27.023Z,74.14
2019-02-07T05:14:27.010Z,74.35
2019-02-07T05:15:26.999Z,74.24
2019-02-07T05:16:38.861Z,74.66
2019-02-07T05:17:27.968Z,74.98
2019-02-07T05:18:26.954Z,74.55
2019-02-07T05:19:26.947Z,74.45
2019-02-07T05:20:26.935Z,74.04
2019-02-07T05:21:26.937Z,74.14
2019-02-07T05:22:26.916Z,74.04
2019-02-07T05:23:26.907Z,73.37
2019-02-07T05:24:26.898Z,73.47
2019-02-07T05:25:26.888Z,73.61
2019-02-07T05:26:26.905Z,73.58
2019-02-07T05:27:26.859Z,74.42
2019-02-07T05:28:26.851Z,73.41
2019-02-07T05:29:26.846Z,73.19
2019-02-07T05:30:26.826Z,73.47
2019-02-07T05:31:26.825Z,74.21
2019-02-07T05:32:26.807Z,73.51
2019-02-07T05:33:26.793Z,73.30
2019-02-07T05:34:26.792Z,74.24
2019-02-07T05:35:26.773Z,73.93
2019-02-07T05:36:26.761Z,74.45
2019-02-07T05:37:26.766Z,73.93
2019-02-07T05:38:26.742Z,73.51
2019-02-07T05:39:26.730Z,73.93
2019-02-07T05:40:26.719Z,74.24
2019-02-07T05:41:26.713Z,73.30
2019-02-07T05:42:26.697Z,73.51
2019-02-07T05:43:26.692Z,73.41
2019-02-07T05:44:26.677Z,74.45
2019-02-07T05:45:26.666Z,74.35
2019-02-07T05:46:26.655Z,73.93
2019-02-07T05:47:26.650Z,74.24
2019-02-07T05:48:26.726Z,73.41
2019-02-07T05:49:26.627Z,72.99
2019-02-07T05:50:26.617Z,73.19
2019-02-07T05:51:26.601Z,72.99
2019-02-07T05:52:26.592Z,72.99
2019-02-07T05:53:26.600Z,72.78
2019-02-07T05:54:26.573Z,72.47
2019-02-07T05:55:26.557Z,72.78
2019-02-07T05:56:26.602Z,72.57
2019-02-07T05:57:26.536Z,72.57
2019-02-07T05:58:26.530Z,72.47
2019-02-07T05:59:26.515Z,72.78
2019-02-07T06:00:26.506Z,72.57
2019-02-07T06:01:26.493Z,73.09
2019-02-07T06:02:26.486Z,72.78
2019-02-07T06:03:26.472Z,73.02
2019-02-07T06:04:26.464Z,73.13
2019-02-07T06:05:26.451Z,73.65
2019-02-07T06:06:26.443Z,73.54
2019-02-07T06:07:26.429Z,73.96
2019-02-07T06:08:26.422Z,73.96
2019-02-07T06:09:26.409Z,74.17
2019-02-07T06:10:26.414Z,74.17
2019-02-07T06:11:26.397Z,73.96
2019-02-07T06:12:26.383Z,74.07
2019-02-07T06:13:26.366Z,74.17
2019-02-07T06:14:26.354Z,73.65
2019-02-07T06:15:26.350Z,73.33
2019-02-07T06:16:26.334Z,73.23
2019-02-07T06:17:26.329Z,72.88
2019-02-07T06:18:26.312Z,72.99
2019-02-07T06:19:26.302Z,72.67
2019-02-07T06:20:26.290Z,73.33
2019-02-07T06:21:26.280Z,72.99
2019-02-07T06:22:26.269Z,72.88
2019-02-07T06:23:26.268Z,72.88
2019-02-07T06:24:26.248Z,72.71
2019-02-07T06:25:26.240Z,73.33
2019-02-07T06:26:26.230Z,72.57
2019-02-07T06:27:26.224Z,73.09
2019-02-07T06:28:26.203Z,72.47
2019-02-07T06:29:26.196Z,72.50
2019-02-07T06:30:26.186Z,73.02
2019-02-07T06:31:26.172Z,72.88
2019-02-07T06:32:26.161Z,73.44
2019-02-07T06:33:26.161Z,73.23
2019-02-07T06:34:29.140Z,73.23
2019-02-07T06:35:26.132Z,73.13
2019-02-07T06:36:26.120Z,73.13
2019-02-07T06:37:26.111Z,73.09
2019-02-07T06:38:26.098Z,72.60
2019-02-07T06:39:28.390Z,72.67
2019-02-07T06:40:26.077Z,72.60
2019-02-07T06:41:26.065Z,72.88
2019-02-07T06:42:26.069Z,72.47
2019-02-07T06:43:26.054Z,72.57
2019-02-07T06:44:26.032Z,72.78
2019-02-07T06:45:26.023Z,72.67
2019-02-07T06:46:26.013Z,72.57
2019-02-07T06:47:26.002Z,72.57
2019-02-07T06:48:25.990Z,72.67
2019-02-07T06:49:25.980Z,72.57
2019-02-07T06:50:26.038Z,72.78
2019-02-07T06:51:25.970Z,72.67
2019-02-07T06:52:25.954Z,72.78
2019-02-07T06:53:25.939Z,72.67
2019-02-07T06:54:25.926Z,72.57
2019-02-07T06:55:25.921Z,72.57
2019-02-07T06:56:25.906Z,72.67
2019-02-07T06:57:25.902Z,72.99
2019-02-07T06:58:25.883Z,72.57
2019-02-07T06:59:25.873Z,72.57
2019-02-07T07:00:25.861Z,73.06
2019-02-07T07:01:25.854Z,72.85
2019-02-07T07:02:25.844Z,72.12
2019-02-07T07:03:25.833Z,72.85
2019-02-07T07:04:25.819Z,72.64
2019-02-07T07:05:25.854Z,72.47
2019-02-07T07:06:25.798Z,72.99
2019-02-07T07:07:25.789Z,72.75
2019-02-07T07:08:25.780Z,72.25
2019-02-07T07:09:25.774Z,72.75
2019-02-07T07:10:25.754Z,72.47
2019-02-07T07:11:25.865Z,72.57
2019-02-07T07:12:25.733Z,72.78
2019-02-07T07:13:25.739Z,72.47
2019-02-07T07:14:25.719Z,72.88
2019-02-07T07:15:25.714Z,72.78
2019-02-07T07:16:25.698Z,72.67
2019-02-07T07:17:26.449Z,72.57
2019-02-07T07:18:25.668Z,72.57
2019-02-07T07:19:25.661Z,72.57
2019-02-07T07:20:25.654Z,72.57
2019-02-07T07:21:25.637Z,72.36
2019-02-07T07:22:25.630Z,72.99
2019-02-07T07:23:25.619Z,72.99
2019-02-07T07:24:25.614Z,72.57
2019-02-07T07:25:25.611Z,72.67
2019-02-07T07:26:25.589Z,72.67
2019-02-07T07:27:25.573Z,72.57
2019-02-07T07:28:25.566Z,72.57
2019-02-07T07:29:25.656Z,72.78
2019-02-07T07:30:25.551Z,72.67
2019-02-07T07:31:25.535Z,72.57
2019-02-07T07:32:25.528Z,72.25
2019-02-07T07:33:25.509Z,72.25
2019-02-07T07:34:25.498Z,72.22
2019-02-07T07:35:25.488Z,72.64
2019-02-07T07:36:25.485Z,72.43
2019-02-07T07:37:25.472Z,72.22
2019-02-07T07:38:25.468Z,72.02
2019-02-07T07:39:25.447Z,72.12
2019-02-07T07:40:25.438Z,72.02
2019-02-07T07:41:25.423Z,72.22
2019-02-07T07:42:25.415Z,72.12
2019-02-07T07:43:25.413Z,71.91
2019-02-07T07:44:25.398Z,72.02
2019-02-07T07:45:25.379Z,72.43
2019-02-07T07:46:25.368Z,72.53
2019-02-07T07:47:35.500Z,72.02
2019-02-07T07:48:26.354Z,72.33
2019-02-07T07:49:25.346Z,72.43
2019-02-07T07:50:25.331Z,71.49
2019-02-07T07:51:25.315Z,71.25
2019-02-07T07:52:25.305Z,71.25
2019-02-07T07:53:25.302Z,72.08
2019-02-07T07:54:25.289Z,71.36
2019-02-07T07:55:25.288Z,71.36
2019-02-07T07:56:25.263Z,71.46
2019-02-07T07:57:25.252Z,71.91
2019-02-07T07:58:25.241Z,71.28
2019-02-07T07:59:25.232Z,71.28
2019-02-07T08:00:25.228Z,71.56
2019-02-07T08:01:25.210Z,70.73
2019-02-07T08:02:25.199Z,70.73
2019-02-07T08:03:25.246Z,70.10
2019-02-07T08:04:25.177Z,70.52
2019-02-07T08:05:25.167Z,70.38
2019-02-07T08:06:25.157Z,70.41
2019-02-07T08:07:25.153Z,70.48
2019-02-07T08:08:25.134Z,70.59
2019-02-07T08:09:25.278Z,70.59
2019-02-07T08:10:25.113Z,70.90
2019-02-07T08:11:25.102Z,70.80
2019-02-07T08:12:25.101Z,71.01
2019-02-07T08:13:25.081Z,70.70
2019-02-07T08:14:25.071Z,70.59
2019-02-07T08:15:25.064Z,70.48
2019-02-07T08:16:25.067Z,70.59
2019-02-07T08:17:25.042Z,70.17
2019-02-07T08:18:25.035Z,70.59
2019-02-07T08:19:25.032Z,69.65
2019-02-07T08:20:25.004Z,70.25
2019-02-07T08:21:24.994Z,70.48
2019-02-07T08:22:24.983Z,69.96
2019-02-07T08:23:24.973Z,70.35
2019-02-07T08:24:24.963Z,70.25
2019-02-07T08:25:24.956Z,69.82
2019-02-07T08:26:24.940Z,68.57
2019-02-07T08:27:24.948Z,69.72
2019-02-07T08:28:26.727Z,68.68
2019-02-07T08:29:24.915Z,68.89
2019-02-07T08:30:36.029Z,68.68
2019-02-07T08:31:25.886Z,68.78
2019-02-07T08:32:24.875Z,68.99
2019-02-07T08:33:24.873Z,68.89
2019-02-07T08:34:24.856Z,68.68
2019-02-07T08:35:24.852Z,68.65
2019-02-07T08:36:24.835Z,69.17
2019-02-07T08:37:24.832Z,68.57
2019-02-07T08:38:24.812Z,68.99
2019-02-07T08:39:24.799Z,68.65
2019-02-07T08:40:24.796Z,68.68
2019-02-07T08:41:24.790Z,68.05
2019-02-07T08:42:24.777Z,68.85
2019-02-07T08:43:24.757Z,68.65
2019-02-07T08:44:24.750Z,68.65
2019-02-07T08:45:24.737Z,69.31
2019-02-07T08:46:24.727Z,68.75
2019-02-07T08:47:24.759Z,68.75
2019-02-07T08:48:24.708Z,68.54
2019-02-07T08:49:24.693Z,68.54
2019-02-07T08:50:24.685Z,68.54
2019-02-07T08:51:24.671Z,68.54
2019-02-07T08:52:24.665Z,68.33
2019-02-07T08:53:24.650Z,68.05
2019-02-07T08:54:24.653Z,68.26
2019-02-07T08:55:24.629Z,68.23
2019-02-07T08:56:24.627Z,68.54
2019-02-07T08:57:24.613Z,68.75
2019-02-07T08:58:24.596Z,68.54
2019-02-07T08:59:24.586Z,68.75
2019-02-07T09:00:24.579Z,68.23
2019-02-07T09:01:24.567Z,68.02
2019-02-07T09:02:24.553Z,67.81
2019-02-07T09:03:24.555Z,68.13
2019-02-07T09:04:24.566Z,67.40
2019-02-07T09:05:24.520Z,68.13
2019-02-07T09:06:24.516Z,68.54
2019-02-07T09:07:24.502Z,67.78
2019-02-07T09:08:24.494Z,68.20
2019-02-07T09:09:24.485Z,67.99
2019-02-07T09:10:24.468Z,68.10
2019-02-07T09:11:24.458Z,68.13
2019-02-07T09:12:24.455Z,68.20
2019-02-07T09:13:24.447Z,67.68
2019-02-07T09:14:24.427Z,67.36
2019-02-07T09:15:24.435Z,67.36
2019-02-07T09:16:24.411Z,67.99
2019-02-07T09:17:24.394Z,67.88
2019-02-07T09:18:24.388Z,67.16
2019-02-07T09:19:24.370Z,67.68
2019-02-07T09:20:24.359Z,68.10
2019-02-07T09:21:24.347Z,67.88
2019-02-07T09:22:24.342Z,67.88
2019-02-07T09:23:24.332Z,67.57
2019-02-07T09:24:24.317Z,67.36
2019-02-07T09:25:24.308Z,67.99
2019-02-07T09:26:24.300Z,67.33
2019-02-07T09:27:24.294Z,67.13
2019-02-07T09:28:24.273Z,67.57
2019-02-07T09:29:24.264Z,67.16
2019-02-07T09:30:24.256Z,66.95
2019-02-07T09:31:24.243Z,67.16
2019-02-07T09:32:24.237Z,67.36
2019-02-07T09:33:26.726Z,66.95
2019-02-07T09:34:24.209Z,66.60
2019-02-07T09:35:24.199Z,66.95
2019-02-07T09:36:24.187Z,66.82
2019-02-07T09:37:24.184Z,66.71
2019-02-07T09:38:24.176Z,67.13
2019-02-07T09:39:24.161Z,66.82
2019-02-07T09:40:24.145Z,67.13
2019-02-07T09:41:24.135Z,66.95
2019-02-07T09:42:24.122Z,66.32
2019-02-07T09:43:25.544Z,66.50
2019-02-07T09:44:24.103Z,66.29
2019-02-07T09:45:24.091Z,66.08
2019-02-07T09:46:24.086Z,66.71
2019-02-07T09:47:24.077Z,67.13
2019-02-07T09:48:24.060Z,66.71
2019-02-07T09:49:24.052Z,66.82
2019-02-07T09:50:24.038Z,66.39
2019-02-07T09:51:24.028Z,65.98
2019-02-07T09:52:24.018Z,66.39
2019-02-07T09:53:24.357Z,66.29
2019-02-07T09:54:24.004Z,66.71
2019-02-07T09:55:23.993Z,67.10
2019-02-07T09:56:23.980Z,66.68
2019-02-07T09:57:23.969Z,66.78
2019-02-07T09:58:23.954Z,66.57
2019-02-07T09:59:23.956Z,66.16
2019-02-07T10:00:23.958Z,66.47
2019-02-07T10:01:23.930Z,65.11
2019-02-07T10:02:23.910Z,65.92
2019-02-07T10:03:23.906Z,65.53
2019-02-07T10:04:23.892Z,65.84
2019-02-07T10:05:23.878Z,65.19
2019-02-07T10:06:23.869Z,64.77
2019-02-07T10:07:23.855Z,65.50
2019-02-07T10:08:23.848Z,64.56
2019-02-07T10:09:23.834Z,64.67
2019-02-07T10:10:23.827Z,63.60
2019-02-07T10:11:23.821Z,64.12
2019-02-07T10:12:23.810Z,63.60
2019-02-07T10:13:23.795Z,63.49
2019-02-07T10:14:23.783Z,63.49
2019-02-07T10:15:23.775Z,63.60
2019-02-07T10:16:23.771Z,63.08
2019-02-07T10:17:23.758Z,63.29
2019-02-07T10:18:32.848Z,63.29
2019-02-07T10:19:24.737Z,63.39
2019-02-07T10:20:23.715Z,62.53
2019-02-07T10:21:23.732Z,61.80
2019-02-07T10:22:23.698Z,61.59
2019-02-07T10:23:23.697Z,61.59
2019-02-07T10:24:23.694Z,62.63
2019-02-07T10:25:23.662Z,61.38
2019-02-07T10:26:23.651Z,61.80
2019-02-07T10:27:23.640Z,62.11
2019-02-07T10:28:23.652Z,61.18
2019-02-07T10:29:23.622Z,61.38
2019-02-07T10:30:23.609Z,61.49
2019-02-07T10:31:23.598Z,60.94
2019-02-07T10:32:23.595Z,60.52
2019-02-07T10:33:23.583Z,60.63
2019-02-07T10:34:23.624Z,60.83
2019-02-07T10:35:23.563Z,60.83
2019-02-07T10:36:23.547Z,61.25
2019-02-07T10:37:23.533Z,60.83
2019-02-07T10:38:23.523Z,59.38
2019-02-07T10:39:23.510Z,60.08
2019-02-07T14:27:00.624Z,55.25
2019-02-07T14:28:00.604Z,55.25
2019-02-07T14:29:31.104Z,54.83
2019-02-07T14:30:31.052Z,53.90
2019-02-07T14:32:01.570Z,54.00
2019-02-07T14:33:01.510Z,54.00
2019-02-07T14:34:31.999Z,54.00
2019-02-07T14:35:31.965Z,53.59
2019-02-07T14:37:02.429Z,54.52
2019-02-07T14:38:02.411Z,53.69
2019-02-07T14:39:32.902Z,54.83
2019-02-07T14:40:32.943Z,54.94
2019-02-07T14:42:03.382Z,55.35
2019-02-07T14:43:03.348Z,55.25
2019-02-07T14:44:33.829Z,55.15
2019-02-07T14:45:33.801Z,55.35
2019-02-07T14:46:33.801Z,55.17
2019-02-07T14:47:33.783Z,55.04
2019-02-07T14:48:33.789Z,55.69
2019-02-07T14:49:33.809Z,55.17
2019-02-07T14:50:33.747Z,55.66
2019-02-07T14:51:33.741Z,56.29
2019-02-07T14:52:33.728Z,55.90
2019-02-07T14:53:33.725Z,55.79
2019-02-07T14:54:33.727Z,56.18
2019-02-07T14:55:33.700Z,56.18
2019-02-07T14:56:33.685Z,56.29
2019-02-07T14:57:34.012Z,56.18
2019-02-07T14:58:33.663Z,56.29
2019-02-07T14:59:33.666Z,56.39
2019-02-07T15:00:33.648Z,56.81
2019-02-07T15:01:33.629Z,55.87
2019-02-07T15:02:33.617Z,56.70
2019-02-07T15:03:33.606Z,56.39
2019-02-07T15:04:33.606Z,57.24
2019-02-07T15:05:33.584Z,57.14
2019-02-07T15:06:33.573Z,57.04
2019-02-07T15:07:33.562Z,57.76
2019-02-07T15:08:33.561Z,57.76
2019-02-07T15:09:33.541Z,58.39
2019-02-07T15:10:33.533Z,58.59
2019-02-07T15:11:33.539Z,58.80
2019-02-07T15:12:33.510Z,59.01
2019-02-07T15:13:33.498Z,58.80
2019-02-07T15:14:33.493Z,59.63
2019-02-07T15:15:33.477Z,59.32
2019-02-07T15:16:33.468Z,59.42
2019-02-07T15:17:33.463Z,59.84
2019-02-07T15:18:33.444Z,59.94
2019-02-07T15:19:33.434Z,60.46
2019-02-07T15:20:33.425Z,60.77
2019-02-07T15:21:33.417Z,61.19
2019-02-07T15:22:33.414Z,61.43
2019-02-07T15:23:33.395Z,61.08
2019-02-07T15:24:33.379Z,61.50
2019-02-07T15:25:33.367Z,61.60
2019-02-07T15:26:33.360Z,62.33
2019-02-07T15:27:33.358Z,62.64
2019-02-07T15:28:33.337Z,62.67
2019-02-07T15:29:33.361Z,62.77
2019-02-07T15:30:33.315Z,63.09
2019-02-07T15:31:33.304Z,62.98
2019-02-07T15:32:33.292Z,63.40
2019-02-07T15:33:33.286Z,63.60
2019-02-07T15:34:33.269Z,63.40
2019-02-07T15:35:33.257Z,63.29
2019-02-07T15:36:33.246Z,63.81
2019-02-07T15:37:33.237Z,62.67
2019-02-07T15:38:33.599Z,64.02
2019-02-07T15:39:33.225Z,63.29
2019-02-07T15:40:33.214Z,63.71
2019-02-07T15:41:33.193Z,63.60
2019-02-07T15:42:33.184Z,63.60
2019-02-07T15:43:33.170Z,63.92
2019-02-07T15:44:33.213Z,64.33
2019-02-07T15:45:33.154Z,64.43
2019-02-07T15:46:33.150Z,64.64
2019-02-07T15:47:33.127Z,64.56
2019-02-07T15:48:33.121Z,64.54
2019-02-07T15:49:33.108Z,65.16
2019-02-07T15:50:38.206Z,65.50
2019-02-07T15:51:34.083Z,65.47
2019-02-07T15:52:33.076Z,64.98
2019-02-07T15:53:33.356Z,65.81
2019-02-07T15:54:33.051Z,65.50
2019-02-07T15:55:33.040Z,66.12
2019-02-07T15:56:33.050Z,66.54
2019-02-07T15:57:33.025Z,66.54
2019-02-07T15:58:33.137Z,66.54
2019-02-07T15:59:32.997Z,66.22
2019-02-07T16:00:33.038Z,66.33
2019-02-07T16:01:32.995Z,66.33
2019-02-07T16:02:32.977Z,66.54
2019-02-07T16:03:32.958Z,66.54
2019-02-07T16:04:32.958Z,66.54
2019-02-07T16:05:32.935Z,67.16
2019-02-07T16:06:32.923Z,67.27
2019-02-07T16:07:32.926Z,66.85
2019-02-07T16:08:32.905Z,66.88
2019-02-07T16:09:32.897Z,67.37
2019-02-07T16:10:32.913Z,67.68
2019-02-07T16:11:32.871Z,67.58
2019-02-07T16:12:32.869Z,68.10
2019-02-07T16:13:32.845Z,67.37
2019-02-07T16:14:32.836Z,67.92
2019-02-07T16:15:32.825Z,68.23
2019-02-07T16:16:32.815Z,68.33
2019-02-07T16:17:32.802Z,68.54
2019-02-07T16:18:32.801Z,68.23
2019-02-07T16:19:32.778Z,68.44
2019-02-07T16:20:32.772Z,68.13
2019-02-07T16:21:32.761Z,68.75
2019-02-07T16:22:32.749Z,68.82
2019-02-07T16:23:32.739Z,68.96
2019-02-07T16:24:32.726Z,68.44
2019-02-07T16:25:32.722Z,68.23
2019-02-07T16:26:32.703Z,69.17
2019-02-07T16:27:32.700Z,68.85
2019-02-07T16:28:32.681Z,68.23
2019-02-07T16:29:32.677Z,68.75
2019-02-07T16:30:32.659Z,68.02
2019-02-07T16:31:32.648Z,68.33
2019-02-07T16:32:32.640Z,68.96
2019-02-07T16:33:32.633Z,68.62
2019-02-07T16:34:32.615Z,68.75
2019-02-07T16:35:32.617Z,68.02
2019-02-07T16:36:32.592Z,68.13
2019-02-07T16:37:32.582Z,68.13
2019-02-07T16:38:32.571Z,69.17
2019-02-07T16:39:32.563Z,68.13
2019-02-07T16:40:32.555Z,68.85
2019-02-07T16:41:32.547Z,68.85
2019-02-07T16:42:32.527Z,68.96
2019-02-07T16:43:32.516Z,68.85
2019-02-07T16:44:32.512Z,68.02
2019-02-07T16:45:32.495Z,68.96
2019-02-07T16:46:32.523Z,69.06
2019-02-07T16:47:32.486Z,69.27
2019-02-07T16:48:32.468Z,68.85
2019-02-07T16:49:32.453Z,69.17
2019-02-07T16:50:32.445Z,68.75